East Warren, Vermont
Current Conditions -  °F | °C
As of 12:35 PM on Tuesday 21 Oct 2014 (Local Time) from K6B0 Reporting Station
Light Rain Light Rain  
Wind Chill: 47°   Ceiling: 4400
Heat Index: 50°   Visibility: 10mi
Dew Point: 47°   Wind: 7mph
Humidity: 90%   Direction: 170°S
Pressure: 29.96"   Gusts: NA
Location:  44.1108°N, 72.8612°W
Report Text: K6B0 211635Z AUTO 17006KT 10SM -RA BKN044 OVC050 10/08 A2996 RMK AO2 T00980083
Loading
Personal Weather Stations






























Interactive Weather Map
Tropical Storm Tracking
New forecast layout! Learn more

10-Day Weather Forecast

Advertisements
Track Severe Weather on mobile